Time;durP1;ratioP1;P1;durP2;ratioP2;P2;SDS_P1;SDS_P2;PMS_P1;PMS_P2;Temp;Humidity;BMP_temperature;BMP_pressure;BME280_temperature;BME280_humidity;BME280_pressure;Samples;Min_cycle;Max_cycle;Signal;HPM_P1;HPM_P2
2023/02/13 00:00:42;;;;;;;11.13;8.40;;;9.60;99.90;;;;;;4880304;29;20928;-73
2023/02/13 00:03:10;;;;;;;10.40;7.60;;;9.60;99.90;;;;;;4880106;29;20426;-73
2023/02/13 00:05:39;;;;;;;10.03;8.10;;;9.60;99.90;;;;;;4879505;29;20445;-73
2023/02/13 00:08:05;;;;;;;10.40;7.70;;;9.60;99.90;;;;;;4881899;29;20453;-73
2023/02/13 00:10:30;;;;;;;11.63;7.30;;;9.60;99.90;;;;;;4880232;29;20481;-73
2023/02/13 00:12:59;;;;;;;8.90;7.10;;;9.60;99.90;;;;;;4895674;29;20398;-73
2023/02/13 00:15:25;;;;;;;9.27;7.17;;;9.60;99.90;;;;;;4881546;29;20422;-73
2023/02/13 00:17:53;;;;;;;9.30;7.20;;;9.60;99.90;;;;;;4880437;29;20499;-73
2023/02/13 00:20:20;;;;;;;7.47;6.53;;;9.60;99.90;;;;;;4881099;29;20451;-73
2023/02/13 00:22:46;;;;;;;9.30;7.33;;;9.60;99.90;;;;;;4881380;29;20407;-73
2023/02/13 00:25:14;;;;;;;9.50;7.10;;;9.60;99.90;;;;;;4910814;29;20418;-72
2023/02/13 00:27:42;;;;;;;10.90;7.33;;;9.60;99.90;;;;;;4876276;29;20241;-73
2023/02/13 00:30:12;;;;;;;10.47;7.53;;;9.60;99.90;;;;;;4895743;29;20545;-73
2023/02/13 00:32:40;;;;;;;10.10;7.33;;;9.60;99.90;;;;;;4895672;29;20451;-73
2023/02/13 00:35:06;;;;;;;9.97;7.80;;;9.60;99.90;;;;;;4895792;29;20763;-73
2023/02/13 00:37:35;;;;;;;9.10;6.80;;;9.60;99.90;;;;;;4895390;29;20446;-73
2023/02/13 00:40:03;;;;;;;10.37;7.50;;;9.60;99.90;;;;;;4895519;29;20399;-73
2023/02/13 00:42:29;;;;;;;10.97;7.50;;;9.60;99.90;;;;;;4868179;29;20498;-73
2023/02/13 00:44:55;;;;;;;10.20;7.00;;;9.60;99.90;;;;;;4880187;29;20474;-73
2023/02/13 00:47:22;;;;;;;11.67;7.60;;;9.60;99.90;;;;;;4879813;29;20458;-73
2023/02/13 00:49:49;;;;;;;9.27;6.87;;;9.60;99.90;;;;;;4895463;29;20461;-73
2023/02/13 00:52:15;;;;;;;11.33;7.30;;;9.60;99.90;;;;;;4867960;29;20498;-73
2023/02/13 00:54:42;;;;;;;10.63;7.50;;;9.60;99.90;;;;;;4892227;29;20446;-73
2023/02/13 00:57:08;;;;;;;8.63;6.77;;;9.60;99.90;;;;;;4877097;29;20459;-73
2023/02/13 00:59:37;;;;;;;11.33;7.40;;;9.60;99.90;;;;;;4862141;29;20841;-73
2023/02/13 01:02:05;;;;;;;12.63;7.80;;;9.60;99.90;;;;;;4876519;29;20423;-73
2023/02/13 01:04:31;;;;;;;11.40;7.40;;;9.60;99.90;;;;;;4862037;29;20462;-73
2023/02/13 01:06:59;;;;;;;9.60;7.17;;;9.60;99.90;;;;;;4861165;29;20454;-73
2023/02/13 01:09:28;;;;;;;11.33;7.03;;;9.60;99.90;;;;;;4861078;29;20459;-73
2023/02/13 01:11:54;;;;;;;8.93;6.63;;;9.60;99.90;;;;;;4861160;29;20415;-73
2023/02/13 01:14:22;;;;;;;10.77;7.60;;;9.60;99.90;;;;;;4876444;29;20432;-73
2023/02/13 01:16:50;;;;;;;9.53;7.67;;;9.60;99.90;;;;;;4876204;29;20852;-73
2023/02/13 01:19:16;;;;;;;9.67;6.87;;;9.60;99.90;;;;;;4876319;29;20889;-73
2023/02/13 01:21:43;;;;;;;7.90;6.60;;;9.60;99.90;;;;;;4876417;29;20426;-73
2023/02/13 01:24:12;;;;;;;9.83;7.77;;;9.60;99.90;;;;;;4885156;29;20553;-73
2023/02/13 01:26:38;;;;;;;8.67;6.73;;;9.60;99.90;;;;;;4876182;29;20450;-73
2023/02/13 01:29:04;;;;;;;9.93;6.90;;;9.60;99.90;;;;;;4875623;29;20848;-73
2023/02/13 01:31:32;;;;;;;8.63;6.30;;;9.60;99.90;;;;;;4879832;29;20408;-73
2023/02/13 01:33:58;;;;;;;9.97;6.87;;;9.60;99.90;;;;;;4878999;29;20429;-73
2023/02/13 01:36:29;;;;;;;10.00;7.23;;;9.60;99.90;;;;;;4863984;29;20800;-73
2023/02/13 01:39:00;;;;;;;10.00;6.47;;;9.60;99.90;;;;;;4879270;29;20419;-73
2023/02/13 01:41:29;;;;;;;10.63;7.83;;;9.60;99.90;;;;;;4879168;29;20435;-73
2023/02/13 01:44:02;;;;;;;10.20;7.67;;;9.60;99.90;;;;;;4875611;29;20515;-73
2023/02/13 01:46:36;;;;;;;11.10;7.77;;;9.60;99.90;;;;;;4875770;29;20444;-73
2023/02/13 01:49:12;;;;;;;10.33;7.20;;;9.60;99.90;;;;;;4860059;29;20497;-73
2023/02/13 01:51:42;;;;;;;9.80;7.03;;;9.60;99.90;;;;;;4875612;29;20510;-73
2023/02/13 01:54:20;;;;;;;12.83;7.80;;;9.60;99.90;;;;;;4873690;29;20443;-73
2023/02/13 01:56:54;;;;;;;11.93;7.87;;;9.60;99.90;;;;;;4878492;29;21276;-73
2023/02/13 01:59:46;;;;;;;12.37;7.67;;;9.60;99.90;;;;;;4882737;29;20461;-73
2023/02/13 02:02:18;;;;;;;10.47;7.80;;;9.60;99.90;;;;;;4878781;29;20777;-73
2023/02/13 02:04:48;;;;;;;14.30;9.17;;;9.60;99.90;;;;;;4878945;29;20419;-73
2023/02/13 02:07:23;;;;;;;12.20;8.53;;;9.60;99.90;;;;;;4863026;29;20462;-73
2023/02/13 02:09:54;;;;;;;12.30;8.63;;;9.60;99.90;;;;;;4878618;29;20454;-73
2023/02/13 02:12:36;;;;;;;13.50;8.33;;;9.60;99.90;;;;;;4863063;29;20514;-73
2023/02/13 02:15:06;;;;;;;13.83;8.60;;;9.60;99.90;;;;;;4859730;29;20820;-73
2023/02/13 02:17:35;;;;;;;11.87;7.53;;;9.60;99.90;;;;;;4844485;29;20468;-73
2023/02/13 02:20:30;;;;;;;12.40;8.47;;;9.60;99.90;;;;;;4859962;29;20460;-73
2023/02/13 02:23:17;;;;;;;10.97;7.50;;;9.60;99.90;;;;;;4876932;29;20431;-72
2023/02/13 02:26:02;;;;;;;11.10;7.47;;;9.60;99.90;;;;;;4878151;29;20482;-73
2023/02/13 02:29:07;;;;;;;11.67;8.13;;;9.60;99.90;;;;;;4863142;29;20423;-73
2023/02/13 02:31:46;;;;;;;12.10;8.50;;;9.60;99.90;;;;;;4863233;29;20435;-73
2023/02/13 02:34:32;;;;;;;11.03;7.60;;;9.60;99.90;;;;;;4862691;29;20494;-73
2023/02/13 02:37:17;;;;;;;12.73;8.27;;;9.60;99.90;;;;;;4878015;29;20468;-73
2023/02/13 02:40:03;;;;;;;12.20;8.10;;;9.60;99.90;;;;;;4878434;29;20464;-73
2023/02/13 02:42:57;;;;;;;13.80;8.93;;;9.60;99.90;;;;;;4878041;29;20426;-73
2023/02/13 02:45:28;;;;;;;13.60;9.03;;;9.50;99.90;;;;;;4862111;29;20544;-73
2023/02/13 02:51:31;;;;;;;14.50;8.87;;;9.50;99.90;;;;;;4893314;29;20485;-73
2023/02/13 02:57:25;;;;;;;13.57;9.10;;;9.50;99.90;;;;;;4890106;29;20440;-73
2023/02/13 03:14:06;;;;;;;13.30;8.67;;;9.50;99.90;;;;;;4877999;29;20410;-73
2023/02/13 03:22:39;;;;;;;15.43;9.10;;;9.50;99.90;;;;;;4882122;29;20434;-73
2023/02/13 03:25:37;;;;;;;11.10;8.00;;;9.50;99.90;;;;;;4893281;29;20411;-73
2023/02/13 03:31:12;;;;;;;13.90;8.20;;;9.50;99.90;;;;;;4860268;29;20403;-73
2023/02/13 03:34:01;;;;;;;11.70;7.40;;;9.50;99.90;;;;;;4863414;29;20521;-73
2023/02/13 03:39:41;;;;;;;13.17;8.60;;;9.50;99.90;;;;;;4877751;29;20414;-72
2023/02/13 03:42:14;;;;;;;13.10;8.13;;;9.50;99.90;;;;;;4893221;29;20487;-73
2023/02/13 03:47:51;;;;;;;14.60;9.83;;;9.50;99.90;;;;;;4878534;29;20434;-73
2023/02/13 03:50:17;;;;;;;10.03;7.47;;;9.50;99.90;;;;;;4893014;29;20447;-73
2023/02/13 03:52:54;;;;;;;10.10;7.10;;;9.50;99.90;;;;;;4878593;29;20442;-73
2023/02/13 04:01:11;;;;;;;11.13;7.40;;;9.50;99.90;;;;;;4865327;29;20518;-72
2023/02/13 04:04:00;;;;;;;11.50;7.47;;;9.50;99.90;;;;;;4880771;29;20450;-73
2023/02/13 04:06:37;;;;;;;11.70;7.93;;;9.50;99.90;;;;;;4896107;29;20489;-72
2023/02/13 04:09:08;;;;;;;11.20;7.53;;;9.50;99.90;;;;;;4896167;29;20814;-72
2023/02/13 04:12:11;;;;;;;10.20;7.23;;;9.50;99.90;;;;;;4882102;29;20753;-73
2023/02/13 04:15:05;;;;;;;10.53;7.03;;;9.50;99.90;;;;;;4894430;29;20426;-73
2023/02/13 04:17:36;;;;;;;9.70;6.90;;;9.50;99.90;;;;;;4881142;29;21155;-72
2023/02/13 04:20:08;;;;;;;11.23;8.00;;;9.50;99.90;;;;;;4896056;29;20406;-73
2023/02/13 04:22:40;;;;;;;10.37;6.30;;;9.50;99.90;;;;;;4883082;29;20438;-73
2023/02/13 04:25:06;;;;;;;12.23;8.00;;;9.50;99.90;;;;;;4873375;29;20574;-73
2023/02/13 04:27:32;;;;;;;13.73;7.97;;;9.50;99.90;;;;;;4861741;29;20440;-73
2023/02/13 04:30:01;;;;;;;11.90;7.13;;;9.50;99.90;;;;;;4861555;29;20472;-73
2023/02/13 04:32:27;;;;;;;9.80;6.67;;;9.50;99.90;;;;;;4875197;29;20452;-72
2023/02/13 04:34:53;;;;;;;11.50;7.40;;;9.50;99.90;;;;;;4881352;29;20399;-73
2023/02/13 04:37:24;;;;;;;10.50;7.50;;;9.50;99.90;;;;;;4863233;29;20448;-73
2023/02/13 04:39:52;;;;;;;11.67;7.93;;;9.50;99.90;;;;;;4861867;29;20447;-73
2023/02/13 04:42:20;;;;;;;10.40;7.33;;;9.50;99.90;;;;;;4861651;29;20461;-73
2023/02/13 04:44:48;;;;;;;9.67;7.47;;;9.50;99.90;;;;;;4862595;29;20538;-72
2023/02/13 04:47:14;;;;;;;9.00;6.87;;;9.40;99.90;;;;;;4894221;29;20553;-72
2023/02/13 04:49:46;;;;;;;8.67;6.50;;;9.50;99.90;;;;;;4898811;29;20516;-73
2023/02/13 04:52:17;;;;;;;11.27;7.83;;;9.50;99.90;;;;;;4896336;29;20450;-73
2023/02/13 04:54:45;;;;;;;10.97;7.97;;;9.50;99.90;;;;;;4880216;29;20443;-73
2023/02/13 04:57:16;;;;;;;12.27;7.90;;;9.50;99.90;;;;;;4880142;29;20498;-72
2023/02/13 04:59:42;;;;;;;11.47;7.43;;;9.50;99.90;;;;;;4881196;29;20419;-73
2023/02/13 05:02:08;;;;;;;11.53;7.80;;;9.50;99.90;;;;;;4895035;29;20431;-73
2023/02/13 05:04:34;;;;;;;10.63;7.70;;;9.50;99.90;;;;;;4895485;29;20433;-73
2023/02/13 05:07:01;;;;;;;11.20;7.00;;;9.40;99.90;;;;;;4870942;29;20477;-73
2023/02/13 05:09:27;;;;;;;11.20;7.80;;;9.40;99.90;;;;;;4862339;29;20467;-72
2023/02/13 05:11:56;;;;;;;10.57;7.50;;;9.50;99.90;;;;;;4879681;29;21050;-73
2023/02/13 05:14:22;;;;;;;10.50;7.33;;;9.50;99.90;;;;;;4880847;29;20910;-72
2023/02/13 05:16:51;;;;;;;9.60;7.30;;;9.40;99.90;;;;;;4894886;29;20535;-73
2023/02/13 05:19:17;;;;;;;9.80;7.53;;;9.40;99.90;;;;;;4880461;29;20453;-72
2023/02/13 05:24:33;;;;;;;10.07;7.63;;;9.40;99.90;;;;;;4880653;29;20494;-72
2023/02/13 05:26:59;;;;;;;12.17;6.70;;;9.40;99.90;;;;;;4880518;29;20537;-73
2023/02/13 05:29:26;;;;;;;9.47;6.60;;;9.40;99.90;;;;;;4894700;29;20609;-74
2023/02/13 05:31:54;;;;;;;9.97;7.23;;;9.40;99.90;;;;;;4890656;29;20514;-72
2023/02/13 05:34:22;;;;;;;10.83;8.10;;;9.40;99.90;;;;;;4870291;29;21015;-74
2023/02/13 05:36:51;;;;;;;13.40;8.63;;;9.40;99.90;;;;;;4878219;29;20450;-74
2023/02/13 05:39:17;;;;;;;10.20;7.90;;;9.40;99.90;;;;;;4885898;29;20920;-74
2023/02/13 05:41:47;;;;;;;10.67;7.40;;;9.40;99.90;;;;;;4896494;29;20445;-74
2023/02/13 05:44:14;;;;;;;10.93;7.73;;;9.40;99.90;;;;;;4892019;29;20423;-73
2023/02/13 05:46:41;;;;;;;11.67;8.50;;;9.40;99.90;;;;;;4863367;29;20453;-73
2023/02/13 05:49:09;;;;;;;11.30;8.27;;;9.40;99.90;;;;;;4861939;29;20576;-73
2023/02/13 05:51:35;;;;;;;10.70;7.60;;;9.40;99.90;;;;;;4892942;29;20443;-73
2023/02/13 05:54:01;;;;;;;11.97;8.33;;;9.40;99.90;;;;;;4844279;29;20443;-73
2023/02/13 05:56:27;;;;;;;10.70;8.23;;;9.40;99.90;;;;;;4861930;29;20453;-72
2023/02/13 05:58:55;;;;;;;10.30;7.53;;;9.40;99.90;;;;;;4880098;29;20999;-73
2023/02/13 06:01:22;;;;;;;10.00;7.50;;;9.40;99.90;;;;;;4861913;29;20410;-73
2023/02/13 06:03:50;;;;;;;11.20;7.80;;;9.40;99.90;;;;;;4893591;29;20418;-72
2023/02/13 06:06:16;;;;;;;10.57;7.87;;;9.30;99.90;;;;;;4876366;29;20458;-73
2023/02/13 06:08:42;;;;;;;10.50;7.93;;;9.30;99.90;;;;;;4859338;29;20466;-73
2023/02/13 06:11:09;;;;;;;9.10;7.00;;;9.30;99.90;;;;;;4843320;29;20464;-73
2023/02/13 06:13:39;;;;;;;11.53;8.20;;;9.30;99.90;;;;;;4843742;29;20440;-73
2023/02/13 06:16:07;;;;;;;11.37;7.10;;;9.30;99.90;;;;;;4864926;29;20453;-72
2023/02/13 06:18:34;;;;;;;10.30;7.40;;;9.30;99.90;;;;;;4876944;29;20403;-72
2023/02/13 06:21:00;;;;;;;12.40;7.20;;;9.30;99.90;;;;;;4875771;29;20426;-72
2023/02/13 06:23:27;;;;;;;10.70;7.80;;;9.30;99.90;;;;;;4858950;29;20940;-73
2023/02/13 06:25:53;;;;;;;11.10;7.60;;;9.30;99.90;;;;;;4872213;29;20449;-73
2023/02/13 06:28:21;;;;;;;11.33;8.20;;;9.30;99.90;;;;;;4870860;29;20441;-72
2023/02/13 06:30:49;;;;;;;9.93;7.40;;;9.30;99.90;;;;;;4892348;29;20411;-73
2023/02/13 06:33:18;;;;;;;12.23;7.97;;;9.30;99.90;;;;;;4890252;29;20502;-72
2023/02/13 06:35:48;;;;;;;10.60;8.00;;;9.30;99.90;;;;;;4875966;29;20528;-73
2023/02/13 06:38:17;;;;;;;11.63;8.70;;;9.30;99.90;;;;;;4860641;29;20418;-72
2023/02/13 06:40:45;;;;;;;11.40;8.07;;;9.30;99.90;;;;;;4876544;29;20533;-73
2023/02/13 06:43:15;;;;;;;10.27;8.10;;;9.30;99.90;;;;;;4869848;29;20430;-72
2023/02/13 06:45:41;;;;;;;11.87;8.33;;;9.20;99.90;;;;;;4871523;29;20446;-72
2023/02/13 06:48:11;;;;;;;12.23;8.43;;;9.20;99.90;;;;;;4893029;29;20434;-73
2023/02/13 06:50:37;;;;;;;12.17;8.30;;;9.20;99.90;;;;;;4867315;29;20475;-74
2023/02/13 06:53:03;;;;;;;13.63;9.17;;;9.20;99.90;;;;;;4861170;29;20520;-73
2023/02/13 06:55:32;;;;;;;12.17;8.70;;;9.20;99.90;;;;;;4877526;29;20466;-72
2023/02/13 06:57:58;;;;;;;11.53;8.03;;;9.20;99.90;;;;;;4892286;29;20453;-73
2023/02/13 07:00:26;;;;;;;12.70;8.20;;;9.20;99.90;;;;;;4877817;29;20459;-73
2023/02/13 07:03:08;;;;;;;11.93;8.50;;;9.20;99.90;;;;;;4871587;29;20936;-73
2023/02/13 07:05:41;;;;;;;13.23;9.50;;;9.20;99.90;;;;;;4879494;29;20468;-73
2023/02/13 07:08:08;;;;;;;12.40;8.90;;;9.20;99.90;;;;;;4876812;29;20434;-73
2023/02/13 07:10:40;;;;;;;13.10;8.50;;;9.20;99.90;;;;;;4858197;29;20880;-73
2023/02/13 07:13:07;;;;;;;13.37;8.70;;;9.20;99.90;;;;;;4876071;29;20459;-73
2023/02/13 07:15:37;;;;;;;11.90;8.63;;;9.20;99.90;;;;;;4876634;29;20802;-73
2023/02/13 07:18:06;;;;;;;13.40;9.00;;;9.10;99.90;;;;;;4860605;29;20515;-73
2023/02/13 07:20:35;;;;;;;14.23;9.93;;;9.20;99.90;;;;;;4859733;29;20811;-73
2023/02/13 07:23:07;;;;;;;11.93;8.50;;;9.20;99.90;;;;;;4845058;29;20455;-73
2023/02/13 07:25:33;;;;;;;13.70;8.90;;;9.10;99.90;;;;;;4889865;29;20519;-73
2023/02/13 07:28:12;;;;;;;13.43;9.23;;;9.10;99.90;;;;;;4871246;29;20501;-73
2023/02/13 07:30:40;;;;;;;12.30;8.57;;;9.10;99.90;;;;;;4878390;29;20454;-73
2023/02/13 07:33:06;;;;;;;14.03;9.00;;;9.10;99.90;;;;;;4881085;29;20434;-73
2023/02/13 07:35:32;;;;;;;13.90;9.50;;;9.10;99.90;;;;;;4879316;29;20469;-73
2023/02/13 07:38:01;;;;;;;13.43;8.40;;;9.10;99.90;;;;;;4879678;29;20458;-75
2023/02/13 07:40:29;;;;;;;14.07;9.70;;;9.10;99.90;;;;;;4895133;29;20470;-72
2023/02/13 07:42:58;;;;;;;11.80;8.43;;;9.10;99.90;;;;;;4877995;29;20430;-73
2023/02/13 07:45:24;;;;;;;11.53;8.90;;;9.10;99.90;;;;;;4877420;29;20510;-73
2023/02/13 07:47:56;;;;;;;13.07;9.27;;;9.10;99.90;;;;;;4847604;29;20467;-76
2023/02/13 07:50:22;;;;;;;14.10;9.70;;;9.10;99.90;;;;;;4868834;29;20498;-73
2023/02/13 07:52:56;;;;;;;10.33;8.13;;;9.10;99.90;;;;;;4875646;29;20470;-73
2023/02/13 07:55:22;;;;;;;15.13;9.07;;;9.10;99.90;;;;;;4870948;29;20462;-74
2023/02/13 07:57:49;;;;;;;12.97;9.50;;;9.10;99.90;;;;;;4896286;29;20470;-74
2023/02/13 08:00:16;;;;;;;13.27;9.67;;;9.10;99.90;;;;;;4880190;29;20424;-74
2023/02/13 08:02:44;;;;;;;14.23;9.77;;;9.10;99.90;;;;;;4896504;29;20414;-74
2023/02/13 08:05:10;;;;;;;13.40;8.87;;;9.10;99.90;;;;;;4881606;29;20462;-74
2023/02/13 08:07:37;;;;;;;11.80;9.50;;;9.10;99.90;;;;;;4880463;29;20467;-74
2023/02/13 08:12:55;;;;;;;12.73;9.80;;;9.10;99.90;;;;;;4895948;29;20427;-74
2023/02/13 08:15:24;;;;;;;11.50;8.53;;;9.10;99.90;;;;;;4892010;29;20426;-74
2023/02/13 08:17:52;;;;;;;15.60;10.03;;;9.10;99.90;;;;;;4880010;29;20442;-74
2023/02/13 08:20:20;;;;;;;15.17;10.03;;;9.10;99.90;;;;;;4887185;29;20457;-74
2023/02/13 08:22:49;;;;;;;13.20;9.30;;;9.10;99.90;;;;;;4877031;29;20461;-70
2023/02/13 08:25:18;;;;;;;15.70;10.50;;;9.00;99.90;;;;;;4880322;29;20984;-74
2023/02/13 08:27:46;;;;;;;13.43;9.07;;;9.00;99.90;;;;;;4862557;29;20466;-74
2023/02/13 08:30:14;;;;;;;14.57;10.37;;;9.00;99.90;;;;;;4881427;29;20458;-74
2023/02/13 08:32:40;;;;;;;13.50;9.40;;;9.10;99.90;;;;;;4849079;29;20893;-74
2023/02/13 08:35:06;;;;;;;14.00;8.67;;;9.00;99.90;;;;;;4880085;29;20533;-74
2023/02/13 08:37:35;;;;;;;13.07;9.70;;;9.00;99.90;;;;;;4880036;29;20449;-74
2023/02/13 08:40:09;;;;;;;12.07;9.57;;;9.00;99.90;;;;;;4878548;29;20521;-72
2023/02/13 08:42:38;;;;;;;15.93;9.80;;;9.00;99.90;;;;;;4879386;29;20784;-72
2023/02/13 08:45:04;;;;;;;12.53;9.63;;;9.10;99.90;;;;;;4894770;29;20450;-73
2023/02/13 08:47:33;;;;;;;14.67;9.27;;;9.00;99.90;;;;;;4878564;29;20485;-74
2023/02/13 08:50:04;;;;;;;16.57;9.60;;;9.10;99.90;;;;;;4889644;29;20469;-72
2023/02/13 08:52:30;;;;;;;13.63;9.40;;;9.10;99.90;;;;;;4887186;29;20507;-72
2023/02/13 08:54:56;;;;;;;12.83;8.87;;;9.10;99.90;;;;;;4867870;29;20439;-72
2023/02/13 08:57:22;;;;;;;11.23;8.83;;;9.10;99.90;;;;;;4863840;29;20842;-72
2023/02/13 08:59:52;;;;;;;14.70;8.70;;;9.10;99.90;;;;;;4880623;29;20493;-72
2023/02/13 09:02:20;;;;;;;13.70;9.17;;;9.10;99.90;;;;;;4890301;29;20525;-72
2023/02/13 09:04:48;;;;;;;12.40;8.87;;;9.10;99.90;;;;;;4882761;29;20510;-72
2023/02/13 09:07:16;;;;;;;12.00;9.30;;;9.10;99.90;;;;;;4892236;29;20469;-72
2023/02/13 09:09:44;;;;;;;14.90;9.30;;;9.10;99.90;;;;;;4890851;29;20474;-72
2023/02/13 09:12:12;;;;;;;12.03;8.47;;;9.10;99.90;;;;;;4859842;29;20802;-72
2023/02/13 09:14:38;;;;;;;11.60;8.70;;;9.10;99.90;;;;;;4878731;29;20473;-72
2023/02/13 09:17:07;;;;;;;10.67;8.03;;;9.10;99.90;;;;;;4872660;29;20525;-72
2023/02/13 09:19:36;;;;;;;10.27;8.43;;;9.10;99.90;;;;;;4873297;29;20539;-72
2023/02/13 09:22:08;;;;;;;12.13;8.63;;;9.20;99.90;;;;;;4862845;29;20464;-72
2023/02/13 09:24:37;;;;;;;11.80;8.73;;;9.20;99.90;;;;;;4869740;29;20528;-72
2023/02/13 09:27:07;;;;;;;12.63;8.57;;;9.20;99.90;;;;;;4878245;29;20811;-72
2023/02/13 09:29:33;;;;;;;11.67;8.47;;;9.20;99.90;;;;;;4864414;29;20837;-72
2023/02/13 09:32:04;;;;;;;12.80;7.93;;;9.20;99.90;;;;;;4877642;29;20602;-72
2023/02/13 09:34:29;;;;;;;12.53;8.93;;;9.20;99.90;;;;;;4877177;29;20474;-72
2023/02/13 09:36:56;;;;;;;13.00;9.83;;;9.20;99.90;;;;;;4879159;29;20561;-72
2023/02/13 09:39:24;;;;;;;11.43;7.93;;;9.20;99.90;;;;;;4874941;29;20799;-72
2023/02/13 09:41:53;;;;;;;11.27;8.47;;;9.20;99.90;;;;;;4869914;29;20433;-72
2023/02/13 09:44:37;;;;;;;11.93;8.77;;;9.20;99.90;;;;;;4862895;29;20473;-72
2023/02/13 09:47:37;;;;;;;11.10;9.07;;;9.30;99.90;;;;;;4859029;29;20459;-72
2023/02/13 09:50:11;;;;;;;10.40;7.90;;;9.30;99.90;;;;;;4877722;29;21022;-72
2023/02/13 09:52:38;;;;;;;12.23;8.40;;;9.30;99.90;;;;;;4851190;29;20491;-72
2023/02/13 09:55:24;;;;;;;10.23;7.70;;;9.30;99.90;;;;;;4864500;29;20426;-72
2023/02/13 09:58:25;;;;;;;11.13;8.33;;;9.30;99.90;;;;;;4876853;29;20466;-73
2023/02/13 10:01:01;;;;;;;11.43;8.73;;;9.30;99.90;;;;;;4864159;29;20431;-72
2023/02/13 10:04:04;;;;;;;12.80;8.00;;;9.30;99.90;;;;;;4863242;29;20423;-73
2023/02/13 10:06:48;;;;;;;10.53;8.10;;;9.30;99.90;;;;;;4872183;29;20465;-72
2023/02/13 10:09:37;;;;;;;10.90;8.00;;;9.30;99.90;;;;;;4877011;29;20529;-71
2023/02/13 10:12:25;;;;;;;9.17;6.93;;;9.40;99.90;;;;;;4875942;29;20575;-72
2023/02/13 10:15:03;;;;;;;13.00;7.70;;;9.40;99.90;;;;;;4876889;29;20494;-75
2023/02/13 10:17:46;;;;;;;10.97;8.20;;;9.40;99.90;;;;;;4870572;29;20490;-73
2023/02/13 10:20:30;;;;;;;13.67;9.40;;;9.40;99.90;;;;;;4860199;29;20407;-72
2023/02/13 10:23:09;;;;;;;9.30;7.10;;;9.40;99.90;;;;;;4854797;29;20465;-72
2023/02/13 10:25:56;;;;;;;10.67;8.00;;;9.50;99.90;;;;;;4892604;29;20414;-72
2023/02/13 10:32:05;;;;;;;10.97;7.57;;;9.50;99.90;;;;;;4850196;29;21208;-73
2023/02/13 10:34:37;;;;;;;11.00;7.60;;;9.50;99.90;;;;;;4874733;29;20516;-71
2023/02/13 10:37:12;;;;;;;10.67;7.37;;;9.50;99.90;;;;;;4884029;29;20461;-72
2023/02/13 10:39:41;;;;;;;13.43;8.03;;;9.50;99.90;;;;;;4882120;29;20441;-74
2023/02/13 10:42:45;;;;;;;9.90;7.60;;;9.50;99.90;;;;;;4876563;29;20439;-73
2023/02/13 10:45:53;;;;;;;10.20;6.93;;;9.60;99.90;;;;;;4877212;29;20425;-73
2023/02/13 10:48:31;;;;;;;10.00;7.40;;;9.60;99.90;;;;;;4841955;29;20530;-73
2023/02/13 10:51:34;;;;;;;11.43;7.20;;;9.60;99.90;;;;;;4884678;29;20940;-73
2023/02/13 10:54:45;;;;;;;11.47;7.67;;;9.60;99.90;;;;;;4875548;29;20509;-73
2023/02/13 10:57:20;;;;;;;7.70;6.47;;;9.60;99.90;;;;;;4894142;29;20458;-73
2023/02/13 10:59:46;;;;;;;8.80;6.90;;;9.60;99.90;;;;;;4869244;29;20443;-73
2023/02/13 11:02:20;;;;;;;12.30;7.87;;;9.60;99.90;;;;;;4870084;29;21229;-73
2023/02/13 11:04:54;;;;;;;10.27;7.13;;;9.60;99.90;;;;;;4863471;29;20502;-72
2023/02/13 11:07:24;;;;;;;11.97;7.73;;;9.70;99.90;;;;;;4862187;29;20474;-74
2023/02/13 11:09:55;;;;;;;9.03;7.33;;;9.70;99.90;;;;;;4854316;29;20478;-74
2023/02/13 11:12:33;;;;;;;8.17;6.27;;;9.70;99.90;;;;;;4860323;29;20438;-73
2023/02/13 11:15:05;;;;;;;9.83;6.40;;;9.70;99.90;;;;;;4850225;29;20492;-73
2023/02/13 11:17:38;;;;;;;9.20;6.33;;;9.70;99.90;;;;;;4862121;29;20454;-74
2023/02/13 11:20:25;;;;;;;10.57;7.30;;;9.70;99.90;;;;;;4861960;29;20985;-73
2023/02/13 11:22:55;;;;;;;10.77;6.97;;;9.80;99.90;;;;;;4895883;29;20446;-73
2023/02/13 11:25:28;;;;;;;9.80;7.83;;;9.80;99.90;;;;;;4880289;29;20471;-72
2023/02/13 11:28:10;;;;;;;10.53;7.07;;;9.80;99.90;;;;;;4895287;29;20462;-73
2023/02/13 11:30:37;;;;;;;9.07;6.50;;;9.80;99.90;;;;;;4895646;29;20506;-75
2023/02/13 11:33:25;;;;;;;8.13;6.10;;;9.80;99.90;;;;;;4881491;29;21133;-73
2023/02/13 11:36:06;;;;;;;9.33;6.97;;;9.80;99.90;;;;;;4881244;29;20414;-72
2023/02/13 11:38:34;;;;;;;7.27;5.07;;;9.80;99.90;;;;;;4879984;29;20448;-73
2023/02/13 11:41:10;;;;;;;8.83;6.60;;;9.80;99.90;;;;;;4905374;29;20437;-73
2023/02/13 11:43:42;;;;;;;7.77;6.07;;;9.90;99.90;;;;;;4899898;29;20504;-73
2023/02/13 11:46:25;;;;;;;9.63;5.97;;;9.90;99.90;;;;;;4900147;29;20831;-75
2023/02/13 11:49:05;;;;;;;9.13;6.70;;;9.90;99.90;;;;;;4899973;29;20461;-71
2023/02/13 11:51:37;;;;;;;9.07;6.27;;;9.90;99.90;;;;;;4895272;29;20455;-73
2023/02/13 11:54:33;;;;;;;9.07;6.57;;;9.90;99.90;;;;;;4877900;29;20494;-73
2023/02/13 11:57:14;;;;;;;7.73;6.93;;;9.90;99.90;;;;;;4878605;29;20793;-73
2023/02/13 11:59:47;;;;;;;8.87;6.90;;;9.90;99.90;;;;;;4878518;29;20431;-73
2023/02/13 12:02:30;;;;;;;7.87;5.50;;;10.00;99.90;;;;;;4877775;29;20421;-73
2023/02/13 12:05:22;;;;;;;9.27;6.90;;;10.00;99.90;;;;;;4861177;29;20447;-73
2023/02/13 12:08:00;;;;;;;9.03;6.20;;;10.00;99.90;;;;;;4877917;29;20476;-73
2023/02/13 12:10:30;;;;;;;9.20;6.50;;;10.00;99.90;;;;;;4878890;29;20896;-73
2023/02/13 12:13:20;;;;;;;9.00;6.60;;;10.00;99.90;;;;;;4862282;29;20430;-73
2023/02/13 12:15:49;;;;;;;7.77;6.03;;;10.00;99.90;;;;;;4875741;29;20438;-73
2023/02/13 12:18:25;;;;;;;7.93;6.13;;;10.00;99.90;;;;;;4877630;29;20498;-73
2023/02/13 12:20:55;;;;;;;8.80;6.07;;;10.00;99.90;;;;;;4878516;29;20526;-73
2023/02/13 12:23:40;;;;;;;8.60;6.17;;;10.10;99.90;;;;;;4877544;29;20510;-73
2023/02/13 12:26:25;;;;;;;7.57;5.87;;;10.10;99.90;;;;;;4892375;29;20458;-73
2023/02/13 12:29:32;;;;;;;12.80;6.80;;;10.10;99.90;;;;;;4878129;29;20540;-73
2023/02/13 12:32:16;;;;;;;9.33;6.20;;;10.10;99.90;;;;;;4854658;29;20948;-73
2023/02/13 12:35:24;;;;;;;8.03;5.37;;;10.10;99.90;;;;;;4877402;29;20427;-73
2023/02/13 12:38:17;;;;;;;6.73;4.87;;;10.10;99.90;;;;;;4892581;29;20449;-73
2023/02/13 12:40:56;;;;;;;8.90;5.80;;;10.20;99.90;;;;;;4875934;29;20443;-73
2023/02/13 12:43:44;;;;;;;7.80;5.50;;;10.10;99.90;;;;;;4876842;29;20434;-73
2023/02/13 12:46:26;;;;;;;8.40;5.33;;;10.20;99.90;;;;;;4860993;29;20477;-73
2023/02/13 12:49:02;;;;;;;7.40;5.40;;;10.20;99.90;;;;;;4878863;29;20757;-73
2023/02/13 12:51:50;;;;;;;7.30;5.10;;;10.20;99.90;;;;;;4880010;29;20462;-73
2023/02/13 12:54:31;;;;;;;8.63;5.20;;;10.20;99.90;;;;;;4878901;29;20422;-74
2023/02/13 12:57:14;;;;;;;7.37;5.10;;;10.20;99.90;;;;;;4878518;29;20479;-73
2023/02/13 13:00:19;;;;;;;7.00;5.43;;;10.20;99.90;;;;;;4894240;29;20409;-73
2023/02/13 13:03:19;;;;;;;7.37;5.10;;;10.30;99.90;;;;;;4879010;29;20469;-73
2023/02/13 13:06:18;;;;;;;6.70;5.20;;;10.30;99.90;;;;;;4878534;29;20841;-73
2023/02/13 13:08:59;;;;;;;8.70;5.23;;;10.30;99.90;;;;;;4878613;29;20441;-74
2023/02/13 13:11:42;;;;;;;7.67;5.30;;;10.30;99.90;;;;;;4878704;29;20442;-74
2023/02/13 13:14:14;;;;;;;5.80;4.47;;;10.30;99.90;;;;;;4878477;29;20577;-73
2023/02/13 13:16:52;;;;;;;6.50;5.10;;;10.30;99.90;;;;;;4894186;29;20453;-74
2023/02/13 13:19:21;;;;;;;7.10;4.97;;;10.30;99.90;;;;;;4894263;29;20407;-74
2023/02/13 13:21:51;;;;;;;6.07;4.30;;;10.30;99.90;;;;;;4878459;29;21008;-74
2023/02/13 13:24:22;;;;;;;7.90;5.10;;;10.40;99.90;;;;;;4879467;29;20482;-73
2023/02/13 13:26:53;;;;;;;6.70;5.00;;;10.30;99.90;;;;;;4882334;29;20577;-74
2023/02/13 13:29:23;;;;;;;6.03;4.80;;;10.40;99.90;;;;;;4878622;29;20843;-74
2023/02/13 13:31:58;;;;;;;7.03;4.90;;;10.40;99.90;;;;;;4879507;29;20482;-74
2023/02/13 13:34:26;;;;;;;6.13;4.60;;;10.40;99.90;;;;;;4893289;29;20518;-74
2023/02/13 13:37:13;;;;;;;7.53;4.97;;;10.40;99.90;;;;;;4872544;29;20458;-74
2023/02/13 13:40:09;;;;;;;5.70;4.37;;;10.40;99.90;;;;;;4877572;29;20579;-74
2023/02/13 13:42:40;;;;;;;5.80;4.97;;;10.40;99.90;;;;;;4883034;29;20461;-74
2023/02/13 13:45:06;;;;;;;5.37;4.87;;;10.50;99.90;;;;;;4883512;29;20860;-73
2023/02/13 13:47:48;;;;;;;5.70;4.37;;;10.50;99.90;;;;;;4882267;29;20482;-73
2023/02/13 13:50:22;;;;;;;9.20;5.53;;;10.50;99.90;;;;;;4893088;29;20478;-74
2023/02/13 13:53:22;;;;;;;4.80;3.67;;;10.50;99.90;;;;;;4878347;29;20823;-74
2023/02/13 13:56:08;;;;;;;5.63;5.00;;;10.50;99.90;;;;;;4862708;29;20459;-74
2023/02/13 13:58:39;;;;;;;8.17;5.43;;;10.50;99.90;;;;;;4896676;29;20824;-73
2023/02/13 14:01:16;;;;;;;5.47;4.53;;;10.50;99.90;;;;;;4881200;29;20458;-74
2023/02/13 14:03:47;;;;;;;6.50;4.33;;;10.50;99.90;;;;;;4896220;29;20490;-73
2023/02/13 14:06:18;;;;;;;5.60;3.97;;;10.50;99.90;;;;;;4880815;29;20486;-73
2023/02/13 14:08:44;;;;;;;5.23;4.40;;;10.50;99.90;;;;;;4878772;29;20994;-74
2023/02/13 14:11:29;;;;;;;6.20;4.97;;;10.60;99.90;;;;;;4893234;29;20444;-74